createdAt,value
2018-04-16T00:00:51.639Z,14.6
2018-04-16T00:01:53.360Z,14.6
2018-04-16T00:02:55.082Z,14.6
2018-04-16T00:03:56.815Z,14.5
2018-04-16T00:04:58.561Z,14.5
2018-04-16T00:06:00.331Z,14.6
2018-04-16T00:07:02.068Z,14.5
2018-04-16T00:08:03.789Z,14.6
2018-04-16T00:09:05.762Z,14.5
2018-04-16T00:10:07.608Z,14.5
2018-04-16T00:11:09.312Z,14.5
2018-04-16T00:12:11.039Z,14.6
2018-04-16T00:13:12.760Z,14.5
2018-04-16T00:14:14.698Z,14.6
2018-04-16T00:15:16.390Z,14.5
2018-04-16T00:16:18.314Z,14.5
2018-04-16T00:17:20.076Z,14.5
2018-04-16T00:18:21.848Z,14.6
2018-04-16T00:19:23.650Z,14.5
2018-04-16T00:20:25.438Z,14.5
2018-04-16T00:21:27.111Z,14.5
2018-04-16T00:22:28.825Z,14.4
2018-04-16T00:23:30.578Z,14.5
2018-04-16T00:24:32.587Z,14.4
2018-04-16T00:25:34.345Z,14.5
2018-04-16T00:26:36.040Z,14.4
2018-04-16T00:27:37.803Z,14.4
2018-04-16T00:28:39.547Z,14.4
2018-04-16T00:29:41.253Z,14.4
2018-04-16T00:30:43.098Z,14.5
2018-04-16T00:31:44.839Z,14.6
2018-04-16T00:32:46.684Z,14.6
2018-04-16T00:33:48.427Z,14.6
2018-04-16T00:34:50.706Z,14.6
2018-04-16T00:35:52.425Z,14.8
2018-04-16T00:36:54.149Z,14.8
2018-04-16T00:37:55.816Z,14.8
2018-04-16T00:38:57.503Z,14.8
2018-04-16T00:39:59.211Z,14.8
2018-04-16T00:41:00.889Z,14.8
2018-04-16T00:42:02.658Z,14.8
2018-04-16T00:43:04.402Z,14.8
2018-04-16T00:44:06.120Z,14.9
2018-04-16T00:45:07.864Z,14.8
2018-04-16T00:46:09.605Z,14.9
2018-04-16T00:47:11.743Z,14.8
2018-04-16T00:48:13.519Z,14.9
2018-04-16T00:49:15.447Z,14.8
2018-04-16T00:50:17.256Z,14.8
2018-04-16T00:51:19.056Z,14.8
2018-04-16T00:52:20.833Z,14.8
2018-04-16T00:53:22.707Z,14.7
2018-04-16T00:54:24.736Z,14.6
2018-04-16T00:55:26.478Z,14.6
2018-04-16T00:56:28.236Z,14.5
2018-04-16T00:57:30.204Z,14.6
2018-04-16T00:58:31.975Z,14.6
2018-04-16T00:59:33.865Z,14.5
2018-04-16T01:00:35.756Z,14.6
2018-04-16T01:01:37.525Z,14.6
2018-04-16T01:02:39.270Z,14.5
2018-04-16T01:03:41.073Z,14.6
2018-04-16T01:04:43.674Z,14.6
2018-04-16T01:05:45.512Z,14.6
2018-04-16T01:06:47.450Z,14.6
2018-04-16T01:07:49.183Z,14.6
2018-04-16T01:08:51.100Z,14.6
2018-04-16T01:09:53.161Z,14.6
2018-04-16T01:10:54.842Z,14.6
2018-04-16T01:11:56.525Z,14.5
2018-04-16T01:12:58.527Z,14.6
2018-04-16T01:14:00.293Z,14.6
2018-04-16T01:15:02.043Z,14.5
2018-04-16T01:16:04.140Z,14.6
2018-04-16T01:17:05.907Z,14.5
2018-04-16T01:18:07.611Z,14.5
2018-04-16T01:19:09.543Z,14.4
2018-04-16T01:20:11.433Z,14.4
2018-04-16T01:21:13.226Z,14.4
2018-04-16T01:22:14.947Z,14.4
2018-04-16T01:23:16.712Z,14.4
2018-04-16T01:24:18.453Z,14.4
2018-04-16T01:25:20.374Z,14.2
2018-04-16T01:26:22.229Z,14.2
2018-04-16T01:27:23.913Z,14.3
2018-04-16T01:28:25.678Z,14.4
2018-04-16T01:29:27.398Z,14.2
2018-04-16T01:30:29.233Z,14.2
2018-04-16T01:31:30.919Z,14.2
2018-04-16T01:32:32.680Z,14.2
2018-04-16T01:33:34.331Z,14.2
2018-04-16T01:34:36.047Z,14.2
2018-04-16T01:35:38.043Z,14.2
2018-04-16T01:36:39.769Z,14.3
2018-04-16T01:37:41.506Z,14.3
2018-04-16T01:38:43.257Z,14.2
2018-04-16T01:39:44.971Z,14.2
2018-04-16T01:40:46.628Z,14.2
2018-04-16T01:41:48.905Z,14.3
2018-04-16T01:42:50.521Z,14.2
2018-04-16T01:43:52.363Z,14.3
2018-04-16T01:44:54.097Z,14.2
2018-04-16T01:45:55.839Z,14.2
2018-04-16T01:46:57.724Z,14.3
2018-04-16T01:47:59.454Z,14.3
2018-04-16T01:49:01.142Z,14.3
2018-04-16T01:50:03.112Z,14.3
2018-04-16T01:51:04.826Z,14.2
2018-04-16T01:52:06.517Z,14.4
2018-04-16T01:53:08.474Z,14.3
2018-04-16T01:54:10.094Z,14.3
2018-04-16T01:55:11.824Z,14.4
2018-04-16T01:56:13.502Z,14.2
2018-04-16T01:57:15.400Z,14.2
2018-04-16T01:58:17.345Z,14.4
2018-04-16T01:59:19.124Z,14.3
2018-04-16T02:00:20.827Z,14.3
2018-04-16T02:01:22.553Z,14.3
2018-04-16T02:02:24.308Z,14.3
2018-04-16T02:03:26.138Z,14.2
2018-04-16T02:04:27.895Z,14.3
2018-04-16T02:05:29.900Z,14.3
2018-04-16T02:06:31.679Z,14.2
2018-04-16T02:07:33.407Z,14.2
2018-04-16T02:08:35.137Z,14.2
2018-04-16T02:09:36.999Z,14.2
2018-04-16T02:10:38.744Z,14.2
2018-04-16T02:11:40.517Z,14.0
2018-04-16T02:12:42.362Z,14.0
2018-04-16T02:13:44.308Z,13.9
2018-04-16T02:14:46.055Z,14.0
2018-04-16T02:15:47.806Z,14.0
2018-04-16T02:16:49.554Z,14.0
2018-04-16T02:17:51.478Z,13.9
2018-04-16T02:18:53.215Z,14.0
2018-04-16T02:19:54.896Z,14.0
2018-04-16T02:20:56.825Z,14.0
2018-04-16T02:21:58.825Z,14.0
2018-04-16T02:23:00.559Z,14.0
2018-04-16T02:24:02.554Z,14.0
2018-04-16T02:25:04.485Z,14.0
2018-04-16T02:26:06.157Z,14.0
2018-04-16T02:27:08.053Z,14.0
2018-04-16T02:28:09.976Z,14.0
2018-04-16T02:29:11.848Z,14.0
2018-04-16T02:30:13.769Z,14.0
2018-04-16T02:31:15.442Z,14.0
2018-04-16T02:32:17.434Z,14.0
2018-04-16T02:33:19.166Z,14.0
2018-04-16T02:34:20.926Z,14.0
2018-04-16T02:35:22.685Z,14.0
2018-04-16T02:36:24.448Z,13.9
2018-04-16T02:37:26.431Z,13.9
2018-04-16T02:38:28.070Z,13.9
2018-04-16T02:39:30.008Z,13.9
2018-04-16T02:40:31.707Z,13.9
2018-04-16T02:41:33.584Z,13.9
2018-04-16T02:42:35.316Z,13.8
2018-04-16T02:43:37.219Z,13.8
2018-04-16T02:44:38.988Z,13.8
2018-04-16T02:45:40.814Z,13.7
2018-04-16T02:46:42.650Z,13.8
2018-04-16T02:47:44.326Z,13.7
2018-04-16T02:48:46.058Z,13.8
2018-04-16T02:49:47.838Z,13.7
2018-04-16T02:50:49.553Z,13.7
2018-04-16T02:51:51.275Z,13.8
2018-04-16T02:52:52.992Z,13.6
2018-04-16T02:53:54.892Z,13.7
2018-04-16T02:54:56.616Z,13.6
2018-04-16T02:55:58.644Z,13.7
2018-04-16T02:57:00.357Z,13.7
2018-04-16T02:58:02.138Z,13.7
2018-04-16T02:59:03.900Z,13.7
2018-04-16T03:00:05.611Z,13.7
2018-04-16T03:01:07.371Z,13.7
2018-04-16T03:02:09.157Z,13.7
2018-04-16T03:03:10.919Z,13.6
2018-04-16T03:04:12.703Z,13.6
2018-04-16T03:05:14.712Z,13.5
2018-04-16T03:06:16.463Z,13.6
2018-04-16T03:07:18.234Z,13.5
2018-04-16T03:08:20.376Z,13.5
2018-04-16T03:09:22.091Z,13.6
2018-04-16T03:10:23.985Z,13.6
2018-04-16T03:11:25.818Z,13.6
2018-04-16T03:12:27.829Z,13.6
2018-04-16T03:13:29.887Z,13.6
2018-04-16T03:14:31.617Z,13.6
2018-04-16T03:15:33.386Z,13.6
2018-04-16T03:16:35.097Z,13.6
2018-04-16T03:17:36.793Z,13.7
2018-04-16T03:18:38.555Z,13.7
2018-04-16T03:19:40.495Z,13.7
2018-04-16T03:20:42.176Z,13.7
2018-04-16T03:21:43.934Z,13.7
2018-04-16T03:22:45.797Z,13.8
2018-04-16T03:23:47.705Z,13.7
2018-04-16T03:24:49.496Z,13.8
2018-04-16T03:25:51.276Z,13.8
2018-04-16T03:26:53.002Z,13.7
2018-04-16T03:27:54.792Z,13.8
2018-04-16T03:28:56.410Z,13.8
2018-04-16T03:29:58.180Z,13.9
2018-04-16T03:30:59.934Z,13.8
2018-04-16T03:32:01.708Z,13.8
2018-04-16T03:33:03.453Z,13.8
2018-04-16T03:34:05.503Z,13.9
2018-04-16T03:35:07.603Z,13.8
2018-04-16T03:36:09.599Z,13.9
2018-04-16T03:37:11.380Z,13.9
2018-04-16T03:38:13.486Z,14.0
2018-04-16T03:39:15.187Z,13.9
2018-04-16T03:40:16.984Z,14.0
2018-04-16T03:41:19.849Z,14.0
2018-04-16T03:42:21.515Z,14.0
2018-04-16T03:43:23.531Z,14.1
2018-04-16T03:44:25.230Z,14.0
2018-04-16T03:45:26.941Z,14.1
2018-04-16T03:46:28.756Z,14.1
2018-04-16T03:47:30.505Z,14.0
2018-04-16T03:48:32.226Z,14.2
2018-04-16T03:49:34.210Z,14.1
2018-04-16T03:50:35.966Z,14.2
2018-04-16T03:51:37.755Z,14.1
2018-04-16T03:52:39.551Z,14.2
2018-04-16T03:53:41.491Z,14.2
2018-04-16T03:54:43.443Z,14.2
2018-04-16T03:55:45.366Z,14.2
2018-04-16T03:56:47.316Z,14.2
2018-04-16T03:57:49.050Z,14.2
2018-04-16T03:58:51.015Z,14.1
2018-04-16T03:59:52.757Z,14.2
2018-04-16T04:00:54.485Z,14.2
2018-04-16T04:01:56.293Z,14.0
2018-04-16T04:02:58.053Z,14.2
2018-04-16T04:03:59.858Z,14.1
2018-04-16T04:05:01.528Z,14.0
2018-04-16T04:06:03.502Z,14.0
2018-04-16T04:07:05.201Z,14.0
2018-04-16T04:08:07.300Z,13.9
2018-04-16T04:09:09.293Z,14.0
2018-04-16T04:10:11.013Z,13.8
2018-04-16T04:11:12.942Z,13.8
2018-04-16T04:12:14.896Z,13.8
2018-04-16T04:13:16.685Z,13.8
2018-04-16T04:14:18.483Z,13.8
2018-04-16T04:15:20.435Z,13.7
2018-04-16T04:16:22.257Z,13.7
2018-04-16T04:17:23.993Z,13.7
2018-04-16T04:18:25.887Z,13.5
2018-04-16T04:19:27.688Z,13.5
2018-04-16T04:20:29.620Z,13.5
2018-04-16T04:21:31.637Z,13.4
2018-04-16T04:22:33.462Z,13.4
2018-04-16T04:23:35.380Z,13.5
2018-04-16T04:24:37.167Z,13.4
2018-04-16T04:25:38.988Z,13.4
2018-04-16T04:26:41.009Z,13.3
2018-04-16T04:27:42.735Z,13.4
2018-04-16T04:28:44.753Z,13.3
2018-04-16T04:29:46.544Z,13.3
2018-04-16T04:30:48.608Z,13.2
2018-04-16T04:31:50.467Z,13.3
2018-04-16T04:32:52.189Z,13.3
2018-04-16T04:33:53.927Z,13.3
2018-04-16T04:34:55.870Z,13.3
2018-04-16T04:35:57.836Z,13.3
2018-04-16T04:37:00.013Z,13.2
2018-04-16T04:38:01.980Z,13.3
2018-04-16T04:39:03.624Z,13.2
2018-04-16T04:40:05.669Z,13.2
2018-04-16T04:41:07.377Z,13.2
2018-04-16T04:42:09.121Z,13.3
2018-04-16T04:43:11.035Z,13.2
2018-04-16T04:44:12.950Z,13.1
2018-04-16T04:45:14.683Z,13.1
2018-04-16T04:46:16.367Z,13.1
2018-04-16T04:47:18.441Z,13.0
2018-04-16T04:48:20.354Z,13.0
2018-04-16T04:49:22.316Z,13.0
2018-04-16T04:50:24.037Z,13.0
2018-04-16T04:51:25.711Z,13.0
2018-04-16T04:52:27.473Z,12.9
2018-04-16T04:53:29.214Z,12.9
2018-04-16T04:54:30.949Z,12.8
2018-04-16T04:55:32.692Z,12.8
2018-04-16T04:56:34.402Z,12.7
2018-04-16T04:57:36.100Z,12.8
2018-04-16T04:58:37.826Z,12.7
2018-04-16T04:59:39.603Z,12.7
2018-04-16T05:00:41.364Z,12.8
2018-04-16T05:01:43.308Z,12.9
2018-04-16T05:02:45.023Z,12.9
2018-04-16T05:03:46.777Z,12.8
2018-04-16T05:04:48.523Z,12.8
2018-04-16T05:05:50.265Z,12.7
2018-04-16T05:06:52.179Z,12.7
2018-04-16T05:07:53.938Z,12.7
2018-04-16T05:08:55.649Z,12.7
2018-04-16T05:09:57.570Z,12.7
2018-04-16T05:10:59.256Z,12.7
2018-04-16T05:12:01.148Z,12.8
2018-04-16T05:13:03.138Z,12.9
2018-04-16T05:14:05.002Z,12.9
2018-04-16T05:15:06.760Z,12.9
2018-04-16T05:16:08.488Z,12.9
2018-04-16T05:17:10.246Z,12.8
2018-04-16T05:18:11.959Z,12.9
2018-04-16T05:19:13.925Z,12.8
2018-04-16T05:20:15.605Z,12.7
2018-04-16T05:21:17.355Z,12.8
2018-04-16T05:22:19.592Z,12.8
2018-04-16T05:23:21.613Z,12.8
2018-04-16T05:24:23.364Z,12.9
2018-04-16T05:25:25.049Z,13.0
2018-04-16T05:26:26.800Z,13.1
2018-04-16T05:27:28.571Z,13.2
2018-04-16T05:28:30.265Z,13.3
2018-04-16T05:29:32.013Z,13.5
2018-04-16T05:30:33.685Z,13.6
2018-04-16T05:31:35.417Z,13.7
2018-04-16T05:32:37.186Z,13.8
2018-04-16T05:33:38.881Z,14.0
2018-04-16T05:34:40.706Z,14.2
2018-04-16T05:35:43.316Z,14.2
2018-04-16T05:36:45.067Z,14.5
2018-04-16T05:37:46.803Z,14.7
2018-04-16T05:38:48.553Z,14.9
2018-04-16T05:39:50.248Z,15.1
2018-04-16T05:40:51.999Z,15.3
2018-04-16T05:41:53.907Z,15.3
2018-04-16T05:42:55.647Z,15.6
2018-04-16T05:43:57.412Z,15.8
2018-04-16T05:44:59.240Z,16.0
2018-04-16T05:46:00.887Z,16.0
2018-04-16T05:47:02.605Z,16.1
2018-04-16T05:48:04.373Z,16.2
2018-04-16T05:49:06.088Z,16.4
2018-04-16T05:50:07.807Z,16.5
2018-04-16T05:51:09.633Z,16.6
2018-04-16T05:52:11.452Z,16.7
2018-04-16T05:53:14.045Z,16.8
2018-04-16T05:54:15.734Z,16.8
2018-04-16T05:55:17.460Z,16.8
2018-04-16T05:56:19.302Z,17.0
2018-04-16T05:57:21.030Z,17.0
2018-04-16T05:58:22.737Z,17.2
2018-04-16T05:59:24.439Z,17.5
2018-04-16T06:00:26.197Z,17.5
2018-04-16T06:01:27.948Z,17.8
2018-04-16T06:02:29.718Z,18.1
2018-04-16T06:03:31.458Z,18.0
2018-04-16T06:04:33.183Z,18.2
2018-04-16T06:05:34.859Z,18.3
2018-04-16T06:06:36.825Z,18.4
2018-04-16T06:07:38.497Z,18.5
2018-04-16T06:08:40.321Z,18.4
2018-04-16T06:09:42.252Z,18.6
2018-04-16T06:10:44.007Z,18.7
2018-04-16T06:11:45.985Z,18.7
2018-04-16T06:12:47.765Z,18.9
2018-04-16T06:13:49.469Z,19.2
2018-04-16T06:14:51.240Z,19.2
2018-04-16T06:15:52.980Z,19.2
2018-04-16T06:16:54.776Z,19.5
2018-04-16T06:17:56.580Z,19.4
2018-04-16T06:18:58.385Z,19.2
2018-04-16T06:20:00.202Z,19.4
2018-04-16T06:21:01.945Z,19.5
2018-04-16T06:22:03.798Z,19.6
2018-04-16T06:23:05.487Z,19.6
2018-04-16T06:24:07.286Z,19.7
2018-04-16T06:25:09.036Z,19.9
2018-04-16T06:26:10.756Z,19.8
2018-04-16T06:27:12.548Z,19.8
2018-04-16T06:28:14.308Z,19.7
2018-04-16T06:29:16.029Z,19.9
2018-04-16T06:30:18.060Z,19.8
2018-04-16T06:31:19.853Z,19.9
2018-04-16T06:32:21.662Z,20.1
2018-04-16T06:33:23.556Z,20.2
2018-04-16T06:34:25.259Z,20.5
2018-04-16T06:35:27.123Z,20.5
2018-04-16T06:36:28.889Z,20.6
2018-04-16T06:37:30.571Z,20.6
2018-04-16T06:38:32.290Z,20.8
2018-04-16T06:39:34.000Z,20.8
2018-04-16T06:40:35.764Z,21.2
2018-04-16T06:41:37.514Z,21.4
2018-04-16T06:42:39.268Z,21.7
2018-04-16T06:43:41.031Z,21.7
2018-04-16T06:44:42.809Z,22.1
2018-04-16T06:45:44.482Z,22.2
2018-04-16T06:46:46.227Z,22.1
2018-04-16T06:47:48.076Z,22.4
2018-04-16T06:48:49.819Z,22.8
2018-04-16T06:49:51.783Z,23.1
2018-04-16T06:50:53.670Z,23.3
2018-04-16T06:51:55.368Z,22.9
2018-04-16T06:52:57.210Z,22.8
2018-04-16T06:53:59.100Z,22.8
2018-04-16T06:55:00.851Z,22.8
2018-04-16T06:56:02.634Z,22.9
2018-04-16T06:57:04.341Z,22.6
2018-04-16T06:58:06.126Z,22.3
2018-04-16T06:59:07.917Z,22.2
2018-04-16T07:00:09.657Z,22.3
2018-04-16T07:01:11.260Z,22.3
2018-04-16T07:02:13.102Z,22.1
2018-04-16T07:03:14.899Z,22.1
2018-04-16T07:04:16.605Z,21.9
2018-04-16T07:05:18.306Z,21.8
2018-04-16T07:06:20.035Z,21.9
2018-04-16T07:07:21.837Z,21.9
2018-04-16T07:08:23.600Z,21.6
2018-04-16T07:09:25.326Z,21.8
2018-04-16T07:10:27.230Z,21.4
2018-04-16T07:11:29.008Z,21.6
2018-04-16T07:12:30.787Z,21.6
2018-04-16T07:13:32.466Z,21.4
2018-04-16T07:14:34.215Z,21.4
2018-04-16T07:15:35.991Z,21.2
2018-04-16T07:16:37.688Z,21.1
2018-04-16T07:17:39.482Z,21.0
2018-04-16T07:18:41.177Z,20.9
2018-04-16T07:19:42.932Z,20.7
2018-04-16T07:20:44.709Z,20.7
2018-04-16T07:21:46.492Z,20.7
2018-04-16T07:22:48.303Z,20.4
2018-04-16T07:23:50.168Z,20.3
2018-04-16T07:24:52.014Z,20.2
2018-04-16T07:25:53.808Z,20.2
2018-04-16T07:26:55.554Z,20.3
2018-04-16T07:27:57.293Z,20.4
2018-04-16T07:28:59.075Z,20.2
2018-04-16T07:30:00.765Z,20.2
2018-04-16T07:31:02.538Z,20.2
2018-04-16T07:32:04.248Z,20.2
2018-04-16T07:33:05.966Z,20.2
2018-04-16T07:34:07.676Z,20.3
2018-04-16T07:35:09.443Z,20.2
2018-04-16T07:36:11.187Z,20.3
2018-04-16T07:37:12.932Z,20.5
2018-04-16T07:38:14.595Z,20.8
2018-04-16T07:39:16.306Z,21.0
2018-04-16T07:40:17.986Z,21.2
2018-04-16T07:41:19.761Z,21.4
2018-04-16T07:42:21.483Z,21.7
2018-04-16T07:43:23.404Z,21.8
2018-04-16T07:44:25.114Z,21.9
2018-04-16T07:45:26.937Z,22.0
2018-04-16T07:46:28.827Z,22.2
2018-04-16T07:47:30.629Z,22.1
2018-04-16T07:48:32.305Z,22.1
2018-04-16T07:49:34.050Z,22.4
2018-04-16T07:50:35.813Z,22.5
2018-04-16T07:51:37.578Z,22.7
2018-04-16T07:52:39.302Z,22.8
2018-04-16T07:53:41.063Z,22.4
2018-04-16T07:54:42.758Z,22.4
2018-04-16T07:55:44.583Z,22.5
2018-04-16T07:56:46.271Z,22.8
2018-04-16T07:57:48.065Z,23.1
2018-04-16T07:58:49.890Z,23.3
2018-04-16T07:59:51.667Z,23.3
2018-04-16T08:00:53.422Z,23.2
2018-04-16T08:01:55.203Z,23.2
2018-04-16T08:02:56.970Z,23.2
2018-04-16T08:03:58.719Z,23.3
2018-04-16T08:05:00.508Z,23.4
2018-04-16T08:06:02.183Z,23.4
2018-04-16T08:07:03.958Z,23.6
2018-04-16T08:08:05.719Z,23.7
2018-04-16T08:09:07.433Z,23.8
2018-04-16T08:10:09.143Z,23.7
2018-04-16T08:11:10.791Z,23.7
2018-04-16T08:12:12.592Z,23.7
2018-04-16T08:13:14.322Z,24.0
2018-04-16T08:14:16.097Z,24.2
2018-04-16T08:15:18.047Z,24.2
2018-04-16T08:16:19.797Z,24.2
2018-04-16T08:17:21.584Z,24.0
2018-04-16T08:18:23.328Z,24.2
2018-04-16T08:19:25.089Z,24.5
2018-04-16T08:20:26.878Z,24.6
2018-04-16T08:21:28.688Z,24.7
2018-04-16T08:22:30.413Z,24.7
2018-04-16T08:23:32.187Z,24.6
2018-04-16T08:24:33.926Z,24.6
2018-04-16T08:25:35.712Z,24.9
2018-04-16T08:26:37.477Z,25.3
2018-04-16T08:27:39.231Z,25.3
2018-04-16T08:28:40.991Z,25.7
2018-04-16T08:29:42.644Z,26.3
2018-04-16T08:30:44.404Z,26.5
2018-04-16T08:31:46.159Z,26.5
2018-04-16T08:32:47.899Z,26.4
2018-04-16T08:33:49.649Z,26.6
2018-04-16T08:34:51.465Z,26.8
2018-04-16T08:35:53.216Z,27.0
2018-04-16T08:36:54.992Z,27.0
2018-04-16T08:37:56.763Z,26.6
2018-04-16T08:38:58.423Z,26.5
2018-04-16T08:40:00.101Z,26.4
2018-04-16T08:41:01.864Z,26.4
2018-04-16T08:42:03.564Z,26.6
2018-04-16T08:43:05.322Z,26.6
2018-04-16T08:44:07.084Z,26.5
2018-04-16T08:45:08.818Z,26.2
2018-04-16T08:46:10.605Z,26.0
2018-04-16T08:47:12.365Z,25.9
2018-04-16T08:48:14.135Z,26.1
2018-04-16T08:49:15.851Z,26.2
2018-04-16T08:50:17.624Z,26.5
2018-04-16T08:51:19.395Z,26.1
2018-04-16T08:52:21.166Z,26.1
2018-04-16T08:53:22.918Z,25.8
2018-04-16T08:54:24.584Z,25.4
2018-04-16T08:55:26.358Z,25.1
2018-04-16T08:56:28.065Z,24.7
2018-04-16T08:57:29.803Z,24.2
2018-04-16T08:58:31.488Z,24.1
2018-04-16T08:59:33.322Z,24.5
2018-04-16T09:00:35.155Z,24.5
2018-04-16T09:01:36.922Z,24.5
2018-04-16T09:02:38.691Z,24.9
2018-04-16T09:03:40.435Z,25.2
2018-04-16T09:04:43.016Z,25.6
2018-04-16T09:05:44.707Z,26.0
2018-04-16T09:06:46.430Z,26.4
2018-04-16T09:07:48.252Z,26.8
2018-04-16T09:08:49.937Z,26.7
2018-04-16T09:09:51.697Z,26.7
2018-04-16T09:10:53.461Z,27.1
2018-04-16T09:11:55.160Z,27.4
2018-04-16T09:12:56.939Z,27.4
2018-04-16T09:13:58.718Z,27.6
2018-04-16T09:15:00.452Z,27.3
2018-04-16T09:16:02.257Z,26.7
2018-04-16T09:17:04.043Z,26.7
2018-04-16T09:18:05.812Z,26.4
2018-04-16T09:19:07.534Z,26.1
2018-04-16T09:20:09.271Z,25.6
2018-04-16T09:21:11.086Z,25.6
2018-04-16T09:22:12.843Z,25.5
2018-04-16T09:23:14.619Z,25.3
2018-04-16T09:24:16.335Z,25.4
2018-04-16T09:25:18.108Z,25.7
2018-04-16T09:26:19.913Z,25.7
2018-04-16T09:27:21.661Z,25.5
2018-04-16T09:28:23.337Z,25.5
2018-04-16T09:29:25.029Z,25.5
2018-04-16T09:30:26.798Z,25.8
2018-04-16T09:31:28.557Z,26.1
2018-04-16T09:32:30.312Z,26.5
2018-04-16T09:33:32.062Z,26.7
2018-04-16T09:34:33.825Z,27.0
2018-04-16T09:35:35.573Z,26.9
2018-04-16T09:36:37.332Z,26.5
2018-04-16T09:37:39.100Z,26.5
2018-04-16T09:38:40.869Z,26.6
2018-04-16T09:39:42.679Z,26.7
2018-04-16T09:40:44.427Z,26.7
2018-04-16T09:41:46.112Z,26.7
2018-04-16T09:42:47.852Z,26.5
2018-04-16T09:43:49.591Z,26.2
2018-04-16T09:44:51.376Z,26.1
2018-04-16T09:45:53.221Z,26.1
2018-04-16T09:46:55.000Z,26.2
2018-04-16T09:47:56.783Z,25.8
2018-04-16T09:48:58.600Z,26.1
2018-04-16T09:50:00.345Z,26.4
2018-04-16T09:51:02.165Z,26.7
2018-04-16T09:52:04.022Z,26.8
2018-04-16T09:53:05.895Z,27.1
2018-04-16T09:54:07.630Z,26.7
2018-04-16T09:55:09.362Z,26.9
2018-04-16T09:56:11.168Z,27.1
2018-04-16T09:57:13.751Z,26.8
2018-04-16T09:58:15.512Z,26.8
2018-04-16T09:59:17.249Z,26.4
2018-04-16T10:00:19.031Z,25.8
2018-04-16T10:01:20.747Z,25.3
2018-04-16T10:02:22.527Z,25.2
2018-04-16T10:03:24.264Z,25.1
2018-04-16T10:04:25.949Z,24.9
2018-04-16T10:05:27.740Z,24.7
2018-04-16T10:06:29.473Z,24.4
2018-04-16T10:07:31.152Z,24.1
2018-04-16T10:08:32.833Z,24.2
2018-04-16T10:09:34.559Z,24.2
2018-04-16T10:10:36.265Z,24.1
2018-04-16T10:11:37.988Z,24.2
2018-04-16T10:12:39.788Z,24.3
2018-04-16T10:13:41.575Z,24.3
2018-04-16T10:14:43.315Z,24.7
2018-04-16T10:15:45.031Z,24.9
2018-04-16T10:16:46.806Z,25.2
2018-04-16T10:17:48.545Z,25.2
2018-04-16T10:18:50.304Z,25.0
2018-04-16T10:19:52.100Z,24.8
2018-04-16T10:20:53.774Z,24.7
2018-04-16T10:21:55.568Z,24.8
2018-04-16T10:22:57.372Z,24.9
2018-04-16T10:23:59.186Z,25.2
2018-04-16T10:25:00.990Z,25.3
2018-04-16T10:26:02.839Z,25.7
2018-04-16T10:27:04.539Z,26.0
2018-04-16T10:28:06.233Z,26.0
2018-04-16T10:29:07.969Z,26.1
2018-04-16T10:30:09.840Z,26.2
2018-04-16T10:31:11.663Z,25.7
2018-04-16T10:32:13.400Z,25.9
2018-04-16T10:33:15.102Z,26.0
2018-04-16T10:34:16.788Z,26.0
2018-04-16T10:35:18.571Z,25.7
2018-04-16T10:36:20.328Z,26.1
2018-04-16T10:37:22.082Z,25.8
2018-04-16T10:38:23.790Z,26.1
2018-04-16T10:39:25.544Z,26.5
2018-04-16T10:40:27.248Z,26.7
2018-04-16T10:41:29.039Z,27.0
2018-04-16T10:42:30.775Z,27.3
2018-04-16T10:43:32.458Z,27.5
2018-04-16T10:44:34.156Z,28.1
2018-04-16T10:45:35.944Z,28.2
2018-04-16T10:46:37.667Z,28.2
2018-04-16T10:47:39.395Z,27.8
2018-04-16T10:48:40.905Z,27.4
2018-04-16T10:49:43.522Z,28.0
2018-04-16T10:50:45.406Z,28.1
2018-04-16T10:51:47.042Z,28.2
2018-04-16T10:52:48.917Z,27.9
2018-04-16T10:53:50.648Z,27.8
2018-04-16T10:54:52.473Z,27.6
2018-04-16T10:55:54.249Z,27.3
2018-04-16T10:56:56.031Z,27.1
2018-04-16T10:57:57.843Z,26.5
2018-04-16T10:58:59.531Z,26.5
2018-04-16T11:00:01.251Z,26.4
2018-04-16T11:01:02.946Z,26.2
2018-04-16T11:02:04.643Z,26.0
2018-04-16T11:03:06.481Z,25.8
2018-04-16T11:04:08.260Z,25.7
2018-04-16T11:05:10.109Z,25.6
2018-04-16T11:06:11.968Z,25.2
2018-04-16T11:07:13.787Z,25.1
2018-04-16T11:08:15.721Z,25.1
2018-04-16T11:09:17.400Z,25.0
2018-04-16T11:10:19.135Z,24.6
2018-04-16T11:11:20.909Z,24.2
2018-04-16T11:12:22.587Z,23.8
2018-04-16T11:13:24.478Z,23.5
2018-04-16T11:14:26.305Z,23.3
2018-04-16T11:15:28.050Z,23.1
2018-04-16T11:16:29.751Z,23.2
2018-04-16T11:17:31.485Z,23.2
2018-04-16T11:18:33.223Z,23.3
2018-04-16T11:19:35.065Z,23.3
2018-04-16T11:20:36.823Z,23.5
2018-04-16T11:21:38.605Z,24.0
2018-04-16T11:22:40.341Z,24.3
2018-04-16T11:23:42.054Z,24.6
2018-04-16T11:24:43.833Z,24.9
2018-04-16T11:25:45.575Z,25.2
2018-04-16T11:26:47.232Z,25.1
2018-04-16T11:27:48.973Z,24.9
2018-04-16T11:28:50.783Z,24.6
2018-04-16T11:29:52.514Z,24.3
2018-04-16T11:30:54.274Z,24.7
2018-04-16T11:31:56.010Z,25.3
2018-04-16T11:32:57.757Z,25.8
2018-04-16T11:33:59.413Z,26.2
2018-04-16T11:35:01.220Z,26.5
2018-04-16T11:36:02.953Z,26.4
2018-04-16T11:37:04.751Z,26.2
2018-04-16T11:38:06.574Z,26.3
2018-04-16T11:39:08.255Z,26.7
2018-04-16T11:40:10.008Z,26.9
2018-04-16T11:41:11.752Z,26.9
2018-04-16T11:42:13.452Z,26.9
2018-04-16T11:43:15.136Z,26.7
2018-04-16T11:44:16.923Z,27.2
2018-04-16T11:45:18.642Z,27.3
2018-04-16T11:46:20.426Z,27.6
2018-04-16T11:47:22.031Z,27.9
2018-04-16T11:48:23.993Z,28.3
2018-04-16T11:49:25.793Z,28.4
2018-04-16T11:50:27.563Z,28.7
2018-04-16T11:51:29.341Z,28.6
2018-04-16T11:52:31.151Z,28.0
2018-04-16T11:53:33.038Z,27.7
2018-04-16T11:54:34.793Z,27.2
2018-04-16T11:55:36.502Z,27.0
2018-04-16T11:56:38.228Z,27.0
2018-04-16T11:57:39.922Z,27.0
2018-04-16T11:58:41.807Z,27.0
2018-04-16T11:59:43.559Z,26.9
2018-04-16T12:00:45.301Z,27.0
2018-04-16T12:01:47.074Z,26.7
2018-04-16T12:02:48.849Z,26.6
2018-04-16T12:03:50.548Z,26.6
2018-04-16T12:04:52.406Z,26.2
2018-04-16T12:05:54.105Z,26.2
2018-04-16T12:06:55.815Z,25.4
2018-04-16T12:07:57.557Z,25.1
2018-04-16T12:08:59.360Z,24.8
2018-04-16T12:10:01.102Z,24.6
2018-04-16T12:11:02.894Z,24.4
2018-04-16T12:12:04.861Z,24.7
2018-04-16T12:13:06.546Z,24.9
2018-04-16T12:14:08.340Z,25.5
2018-04-16T12:15:10.339Z,25.9
2018-04-16T12:16:12.083Z,26.5
2018-04-16T12:17:13.943Z,26.7
2018-04-16T12:18:15.684Z,26.9
2018-04-16T12:19:17.371Z,27.1
2018-04-16T12:20:19.236Z,27.0
2018-04-16T12:21:20.999Z,27.4
2018-04-16T12:22:22.718Z,27.1
2018-04-16T12:23:24.425Z,27.2
2018-04-16T12:24:26.314Z,26.6
2018-04-16T12:25:28.121Z,26.4
2018-04-16T12:26:29.846Z,25.8
2018-04-16T12:27:31.629Z,25.0
2018-04-16T12:28:33.657Z,24.6
2018-04-16T12:29:35.439Z,24.2
2018-04-16T12:30:37.186Z,24.0
2018-04-16T12:31:38.880Z,24.2
2018-04-16T12:32:40.623Z,24.5
2018-04-16T12:33:42.348Z,24.7
2018-04-16T12:34:44.131Z,24.4
2018-04-16T12:35:45.924Z,24.8
2018-04-16T12:36:47.675Z,24.9
2018-04-16T12:37:49.425Z,24.9
2018-04-16T12:38:51.233Z,24.8
2018-04-16T12:39:53.033Z,24.9
2018-04-16T12:40:55.210Z,24.9
2018-04-16T12:41:57.054Z,24.7
2018-04-16T12:42:58.716Z,25.1
2018-04-16T12:44:00.384Z,25.6
2018-04-16T12:45:02.141Z,26.2
2018-04-16T12:46:03.786Z,26.8
2018-04-16T12:47:05.499Z,27.1
2018-04-16T12:48:07.313Z,27.6
2018-04-16T12:49:09.096Z,28.0
2018-04-16T12:50:10.876Z,28.1
2018-04-16T12:51:13.007Z,28.1
2018-04-16T12:52:14.815Z,27.9
2018-04-16T12:53:16.582Z,27.2
2018-04-16T12:54:18.358Z,26.5
2018-04-16T12:55:20.063Z,26.4
2018-04-16T12:56:21.882Z,26.6
2018-04-16T12:57:23.634Z,26.7
2018-04-16T12:58:25.771Z,26.6
2018-04-16T12:59:27.634Z,26.1
2018-04-16T13:00:29.317Z,25.8
2018-04-16T13:01:31.032Z,25.6
2018-04-16T13:02:32.925Z,25.8
2018-04-16T13:03:34.608Z,26.1
2018-04-16T13:04:36.465Z,26.4
2018-04-16T13:05:38.379Z,26.9
2018-04-16T13:06:40.093Z,27.2
2018-04-16T13:07:41.896Z,27.3
2018-04-16T13:08:43.612Z,27.6
2018-04-16T13:09:45.350Z,27.7
2018-04-16T13:10:47.152Z,28.0
2018-04-16T13:11:48.991Z,28.1
2018-04-16T13:12:50.686Z,28.7
2018-04-16T13:13:52.489Z,28.6
2018-04-16T13:14:54.272Z,28.7
2018-04-16T13:15:56.106Z,29.2
2018-04-16T13:16:57.851Z,29.4
2018-04-16T13:17:59.535Z,29.7
2018-04-16T13:19:01.342Z,30.0
2018-04-16T13:20:03.167Z,30.1
2018-04-16T13:21:05.000Z,30.1
2018-04-16T13:22:06.770Z,30.2
2018-04-16T13:23:08.547Z,30.1
2018-04-16T13:24:10.525Z,29.8
2018-04-16T13:25:12.408Z,29.8
2018-04-16T13:26:14.232Z,29.6
2018-04-16T13:27:16.037Z,29.8
2018-04-16T13:28:17.732Z,29.8
2018-04-16T13:29:19.410Z,30.1
2018-04-16T13:30:21.107Z,30.1
2018-04-16T13:31:22.816Z,30.3
2018-04-16T13:32:24.498Z,30.0
2018-04-16T13:33:26.267Z,30.1
2018-04-16T13:34:27.957Z,30.3
2018-04-16T13:35:29.645Z,30.4
2018-04-16T13:36:31.467Z,30.1
2018-04-16T13:37:33.163Z,29.8
2018-04-16T13:38:35.793Z,29.2
2018-04-16T13:39:37.521Z,28.3
2018-04-16T13:40:39.324Z,28.2
2018-04-16T13:41:41.022Z,28.0
2018-04-16T13:42:42.954Z,28.1